Time;durP1;ratioP1;P1;durP2;ratioP2;P2;SDS_P1;SDS_P2;PMS_P1;PMS_P2;Temp;Humidity;BMP_temperature;BMP_pressure;BME280_temperature;BME280_humidity;BME280_pressure;Samples;Min_cycle;Max_cycle;Signal;HPM_P1;HPM_P2
2022/04/25 00:01:15;;;;;;;;;;;;;;;6.46;93.66;97096.75;3223233;23;19933;-76
2022/04/25 00:02:30;;;;;;;;;;;;;;;6.41;93.65;97103.00;3224206;22;20339;-77
2022/04/25 00:03:46;;;;;;;;;;;;;;;6.39;93.85;97100.47;3223588;23;19950;-76
2022/04/25 00:05:01;;;;;;;;;;;;;;;6.36;94.09;97105.78;3223412;23;19930;-77
2022/04/25 00:06:17;;;;;;;;;;;;;;;6.36;94.24;97101.41;3223771;22;20326;-76
2022/04/25 00:07:32;;;;;;;;;;;;;;;6.40;94.21;97098.69;3223586;23;19923;-76
2022/04/25 00:08:48;;;;;;;;;;;;;;;6.40;94.00;97101.28;3224134;22;19973;-76
2022/04/25 00:10:04;;;;;;;;;;;;;;;6.36;93.96;97106.59;3223785;23;20331;-76
2022/04/25 00:11:19;;;;;;;;;;;;;;;6.38;94.16;97109.16;3223732;22;19923;-76
2022/04/25 00:12:35;;;;;;;;;;;;;;;6.43;94.23;97106.41;3223878;22;19927;-76
2022/04/25 00:13:50;;;;;;;;;;;;;;;6.41;94.48;97113.38;3224349;23;19923;-76
2022/04/25 00:15:07;;;;;;;;;;;;;;;6.38;94.34;97114.38;3223832;23;19950;-78
2022/04/25 00:16:23;;;;;;;;;;;;;;;6.38;94.50;97108.31;3224010;22;20354;-76
2022/04/25 00:17:39;;;;;;;;;;;;;;;6.46;94.85;97106.31;3223943;22;19920;-77
2022/04/25 00:18:54;;;;;;;;;;;;;;;6.43;94.60;97112.44;3223273;22;19959;-76
2022/04/25 00:20:10;;;;;;;;;;;;;;;6.44;94.75;97108.94;3223408;23;19923;-76
2022/04/25 00:21:26;;;;;;;;;;;;;;;6.48;93.88;97109.72;3224177;22;20393;-76
2022/04/25 00:22:41;;;;;;;;;;;;;;;6.46;93.93;97114.13;3223330;22;19955;-76
2022/04/25 00:23:57;;;;;;;;;;;;;;;6.40;94.23;97109.97;3223722;23;19923;-76
2022/04/25 00:25:13;;;;;;;;;;;;;;;6.32;94.82;97114.53;3223945;22;19930;-76
2022/04/25 00:26:29;;;;;;;;;;;;;;;6.32;94.42;97106.75;3223584;22;19924;-77
2022/04/25 00:27:44;;;;;;;;;;;;;;;6.35;94.61;97109.25;3223716;22;19950;-76
2022/04/25 00:28:59;;;;;;;;;;;;;;;6.35;94.92;97107.50;3223421;23;20618;-76
2022/04/25 00:30:15;;;;;;;;;;;;;;;6.30;95.52;97109.41;3223624;22;20495;-76
2022/04/25 00:31:31;;;;;;;;;;;;;;;6.28;95.81;97112.97;3223515;22;19919;-77
2022/04/25 00:32:46;;;;;;;;;;;;;;;6.27;95.64;97112.09;3223639;22;19954;-79
2022/04/25 00:34:02;;;;;;;;;;;;;;;6.33;95.09;97111.91;3223712;23;20005;-78
2022/04/25 00:35:17;;;;;;;;;;;;;;;6.32;94.97;97105.00;3223473;23;19923;-77
2022/04/25 00:36:33;;;;;;;;;;;;;;;6.31;95.16;97105.06;3223494;22;19951;-77
2022/04/25 00:37:49;;;;;;;;;;;;;;;6.35;94.88;97109.25;3223529;23;19923;-77
2022/04/25 00:39:04;;;;;;;;;;;;;;;6.41;94.66;97108.19;3223740;22;20550;-77
2022/04/25 00:40:23;;;;;;;;;;;;;;;6.45;94.32;97108.03;3223819;23;19943;-77
2022/04/25 00:41:39;;;;;;;;;;;;;;;6.39;94.76;97107.41;3223720;22;19927;-76
2022/04/25 00:42:55;;;;;;;;;;;;;;;6.32;94.74;97109.34;3224161;22;20142;-77
2022/04/25 00:44:10;;;;;;;;;;;;;;;6.32;95.10;97106.75;3223754;23;20236;-76
2022/04/25 00:45:25;;;;;;;;;;;;;;;6.31;95.42;97110.25;3223455;22;19924;-77
2022/04/25 00:46:42;;;;;;;;;;;;;;;6.30;95.47;97111.16;3223330;23;20271;-76
2022/04/25 00:47:58;;;;;;;;;;;;;;;6.27;95.67;97106.88;3223699;22;20680;-78
2022/04/25 00:49:14;;;;;;;;;;;;;;;6.29;95.92;97105.13;3223726;22;20259;-76
2022/04/25 00:50:31;;;;;;;;;;;;;;;6.26;96.13;97105.19;3223816;22;19995;-76
2022/04/25 00:51:47;;;;;;;;;;;;;;;6.31;95.87;97108.50;3223743;22;20252;-77
2022/04/25 00:53:03;;;;;;;;;;;;;;;6.28;95.80;97103.38;3223487;22;19924;-76
2022/04/25 00:54:22;;;;;;;;;;;;;;;6.26;96.08;97110.38;3223725;22;19919;-76
2022/04/25 00:55:37;;;;;;;;;;;;;;;6.26;96.10;97105.19;3224165;22;19919;-76
2022/04/25 00:56:52;;;;;;;;;;;;;;;6.35;95.58;97104.03;3223786;23;20279;-79
2022/04/25 00:58:08;;;;;;;;;;;;;;;6.35;95.32;97115.31;3223399;22;20041;-80
2022/04/25 00:59:24;;;;;;;;;;;;;;;6.35;95.26;97102.31;3223391;22;20346;-78
2022/04/25 01:00:40;;;;;;;;;;;;;;;6.33;95.16;97111.91;3223886;22;20919;-77
2022/04/25 01:01:55;;;;;;;;;;;;;;;6.30;95.32;97109.41;3223626;22;19933;-83
2022/04/25 01:03:13;;;;;;;;;;;;;;;6.43;94.89;97106.41;3223515;23;19924;-77
2022/04/25 01:04:29;;;;;;;;;;;;;;;6.33;95.00;97106.72;3223464;22;19927;-77
2022/04/25 01:05:44;;;;;;;;;;;;;;;6.30;95.59;97108.56;3223729;22;20378;-79
2022/04/25 01:06:59;;;;;;;;;;;;;;;6.34;95.24;97112.75;3223698;23;19928;-78
2022/04/25 01:08:15;;;;;;;;;;;;;;;6.30;95.21;97105.94;3223554;22;19931;-76
2022/04/25 01:09:31;;;;;;;;;;;;;;;6.31;95.29;97100.72;3223882;22;19927;-76
2022/04/25 01:10:46;;;;;;;;;;;;;;;6.24;95.22;97104.41;3223689;22;20285;-76
2022/04/25 01:12:02;;;;;;;;;;;;;;;6.28;95.38;97106.00;3223513;23;19919;-77
2022/04/25 01:13:18;;;;;;;;;;;;;;;6.30;94.86;97112.00;3223483;22;19924;-77
2022/04/25 01:14:33;;;;;;;;;;;;;;;6.31;95.17;97107.66;3223811;22;19923;-77
2022/04/25 01:15:49;;;;;;;;;;;;;;;6.30;95.14;97114.63;3223725;23;19923;-76
2022/04/25 01:17:04;;;;;;;;;;;;;;;6.37;94.61;97107.47;3223402;23;20815;-76
2022/04/25 01:18:20;;;;;;;;;;;;;;;6.39;94.20;97112.59;3223972;22;20111;-76
2022/04/25 01:19:36;;;;;;;;;;;;;;;6.45;94.34;97110.66;3223225;22;20247;-76
2022/04/25 01:20:57;;;;;;;;;;;;;;;6.40;94.05;97104.75;3223470;22;19969;-76
2022/04/25 01:22:14;;;;;;;;;;;;;;;6.35;94.51;97107.50;3223399;22;19981;-76
2022/04/25 01:28:12;;;;;;;;;;;;;;;6.36;94.38;97090.16;3228979;23;19923;-76
2022/04/25 01:29:28;;;;;;;;;;;;;;;6.39;94.50;97102.19;3223252;22;20294;-76
2022/04/25 01:30:43;;;;;;;;;;;;;;;6.34;94.55;97102.34;3223566;22;19923;-76
2022/04/25 01:31:59;;;;;;;;;;;;;;;6.29;94.86;97102.53;3223913;23;19930;-77
2022/04/25 01:33:14;;;;;;;;;;;;;;;6.27;95.10;97106.06;3223223;22;20232;-76
2022/04/25 01:34:32;;;;;;;;;;;;;;;6.26;95.20;97100.00;3223384;22;19920;-76
2022/04/25 01:35:47;;;;;;;;;;;;;;;6.29;94.87;97105.13;3223333;22;19927;-75
2022/04/25 01:37:06;;;;;;;;;;;;;;;6.28;94.98;97110.34;3222938;23;19966;-76
2022/04/25 01:38:22;;;;;;;;;;;;;;;6.34;95.08;97111.00;3223183;23;19923;-75
2022/04/25 01:40:04;;;;;;;;;;;;;;;6.32;94.90;97105.00;3223600;23;19940;-77
2022/04/25 01:41:20;;;;;;;;;;;;;;;6.29;95.07;97115.50;3217067;22;19930;-76
2022/04/25 01:42:35;;;;;;;;;;;;;;;6.29;95.06;97105.13;3223561;22;20465;-76
2022/04/25 01:43:51;;;;;;;;;;;;;;;6.30;95.13;97108.56;3223844;22;20245;-75
2022/04/25 01:45:07;;;;;;;;;;;;;;;6.30;95.42;97111.16;3223759;22;19923;-76
2022/04/25 01:46:23;;;;;;;;;;;;;;;6.26;95.23;97106.97;3223775;22;19924;-76
2022/04/25 01:47:40;;;;;;;;;;;;;;;6.28;95.02;97111.19;3223382;22;19923;-77
2022/04/25 01:48:55;;;;;;;;;;;;;;;6.30;94.83;97100.75;3223655;22;19927;-77
2022/04/25 01:50:11;;;;;;;;;;;;;;;6.29;95.31;97104.25;3223855;23;19923;-76
2022/04/25 01:51:26;;;;;;;;;;;;;;;6.34;95.23;97103.22;3223662;23;19923;-77
2022/04/25 01:52:41;;;;;;;;;;;;;;;6.32;95.07;97106.75;3223165;23;19993;-77
2022/04/25 01:53:57;;;;;;;;;;;;;;;6.33;95.05;97101.50;3223578;22;19984;-76
2022/04/25 01:55:12;;;;;;;;;;;;;;;6.33;95.15;97105.84;3223583;23;19920;-77
2022/04/25 01:56:28;;;;;;;;;;;;;;;6.32;94.76;97107.63;3223672;23;19924;-76
2022/04/25 01:57:43;;;;;;;;;;;;;;;6.30;95.50;97112.00;3223479;23;20008;-76
2022/04/25 01:58:58;;;;;;;;;;;;;;;6.35;95.22;97110.09;3223376;23;19923;-76
2022/04/25 02:00:14;;;;;;;;;;;;;;;6.35;94.89;97104.03;3223454;23;19923;-76
2022/04/25 02:01:30;;;;;;;;;;;;;;;6.35;94.99;97114.44;3223549;23;19926;-76
2022/04/25 02:02:45;;;;;;;;;;;;;;;6.41;94.54;97106.47;3223038;23;19935;-76
2022/04/25 02:04:00;;;;;;;;;;;;;;;6.33;94.86;97114.50;3223577;23;20283;-76
2022/04/25 02:05:16;;;;;;;;;;;;;;;6.39;94.77;97104.81;3223792;23;19924;-76
2022/04/25 02:06:32;;;;;;;;;;;;;;;6.40;94.89;97115.16;3223516;23;19946;-76
2022/04/25 02:07:47;;;;;;;;;;;;;;;6.39;94.77;97112.59;3223775;23;19923;-76
2022/04/25 02:09:02;;;;;;;;;;;;;;;6.38;95.12;97114.38;3223291;22;20159;-76
2022/04/25 02:10:18;;;;;;;;;;;;;;;6.43;95.12;97116.81;3223384;23;20347;-77
2022/04/25 02:11:34;;;;;;;;;;;;;;;6.40;95.43;97116.91;3223517;23;19923;-76
2022/04/25 02:12:49;;;;;;;;;;;;;;;6.38;95.89;97116.09;3223529;22;20410;-75
2022/04/25 02:14:05;;;;;;;;;;;;;;;6.35;95.79;97122.22;3223366;23;20012;-76
2022/04/25 02:15:21;;;;;;;;;;;;;;;6.32;95.60;97110.22;3223730;22;20206;-76
2022/04/25 02:16:36;;;;;;;;;;;;;;;6.38;95.53;97110.91;3223667;23;19923;-76
2022/04/25 02:17:52;;;;;;;;;;;;;;;6.33;95.60;97111.91;3223639;22;20292;-76
2022/04/25 02:19:07;;;;;;;;;;;;;;;6.32;95.45;97117.16;3223428;22;20306;-76
2022/04/25 02:20:22;;;;;;;;;;;;;;;6.35;95.60;97117.03;3223569;23;20310;-75
2022/04/25 02:21:38;;;;;;;;;;;;;;;6.33;95.61;97113.66;3223644;23;19961;-75
2022/04/25 02:22:53;;;;;;;;;;;;;;;6.31;95.72;97115.44;3223506;22;19927;-76
2022/04/25 02:24:09;;;;;;;;;;;;;;;6.30;95.71;97117.22;3223456;23;19965;-76
2022/04/25 02:25:24;;;;;;;;;;;;;;;6.33;95.79;97121.44;3223472;22;19942;-76
2022/04/25 02:26:40;;;;;;;;;;;;;;;6.30;95.72;97117.22;3223155;23;20350;-76
2022/04/25 02:27:55;;;;;;;;;;;;;;;6.32;95.81;97120.59;3223062;23;19931;-76
2022/04/25 02:29:10;;;;;;;;;;;;;;;6.33;95.83;97121.44;3223129;23;20350;-76
2022/04/25 02:30:26;;;;;;;;;;;;;;;6.32;95.76;97120.59;3223137;23;19943;-77
2022/04/25 02:31:42;;;;;;;;;;;;;;;6.28;95.97;97118.16;3223136;23;19923;-78
2022/04/25 02:32:57;;;;;;;;;;;;;;;6.28;96.12;97121.59;3223241;22;20342;-76
2022/04/25 02:34:13;;;;;;;;;;;;;;;6.31;95.97;97124.09;3222807;23;19924;-75
2022/04/25 02:35:29;;;;;;;;;;;;;;;6.29;96.33;97115.50;3223591;22;19923;-77
2022/04/25 02:36:45;;;;;;;;;;;;;;;6.33;96.16;97119.72;3223078;23;19919;-77
2022/04/25 02:38:01;;;;;;;;;;;;;;;6.41;95.71;97121.19;3223473;22;19923;-76
2022/04/25 02:39:16;;;;;;;;;;;;;;;6.36;95.45;97124.81;3223473;23;20378;-76
2022/04/25 02:40:32;;;;;;;;;;;;;;;6.40;95.76;97127.28;3222986;22;19993;-76
2022/04/25 02:41:47;;;;;;;;;;;;;;;6.38;95.76;97127.38;3223361;23;19930;-76
2022/04/25 02:43:02;;;;;;;;;;;;;;;6.35;95.54;97125.69;3224157;23;19947;-76
2022/04/25 02:44:18;;;;;;;;;;;;;;;6.32;95.43;97125.81;3223971;23;19927;-75
2022/04/25 02:45:35;;;;;;;;;;;;;;;6.32;95.77;97123.22;3223955;22;20159;-75
2022/04/25 02:46:50;;;;;;;;;;;;;;;6.34;95.84;97128.34;3224053;22;19958;-76
2022/04/25 02:48:05;;;;;;;;;;;;;;;6.29;95.82;97133.72;3224042;22;19999;-76
2022/04/25 02:49:21;;;;;;;;;;;;;;;6.31;95.92;97126.72;3224152;23;20335;-76
2022/04/25 02:50:36;;;;;;;;;;;;;;;6.31;96.04;97129.31;3224104;22;20250;-76
2022/04/25 02:51:52;;;;;;;;;;;;;;;6.37;96.06;97136.06;3224113;23;20290;-76
2022/04/25 02:53:07;;;;;;;;;;;;;;;6.35;95.58;97130.91;3223780;23;19923;-76
2022/04/25 02:54:22;;;;;;;;;;;;;;;6.34;95.54;97137.00;3224293;22;20264;-76
2022/04/25 02:55:38;;;;;;;;;;;;;;;6.35;95.61;97130.91;3223041;23;19923;-76
2022/04/25 02:56:54;;;;;;;;;;;;;;;6.35;95.89;97128.31;3223751;23;19924;-76
2022/04/25 02:58:10;;;;;;;;;;;;;;;6.38;95.76;97134.28;3224271;22;20384;-78
2022/04/25 02:59:25;;;;;;;;;;;;;;;6.40;95.42;97129.88;3224046;23;19928;-76
2022/04/25 03:00:41;;;;;;;;;;;;;;;6.40;95.74;97132.50;3223679;22;19950;-76
2022/04/25 03:01:56;;;;;;;;;;;;;;;6.37;95.85;97136.06;3223978;23;19970;-77
2022/04/25 03:03:12;;;;;;;;;;;;;;;6.34;95.89;97134.41;3223892;23;19958;-75
2022/04/25 03:04:28;;;;;;;;;;;;;;;6.35;95.71;97132.63;3223775;22;20349;-75
2022/04/25 03:05:45;;;;;;;;;;;;;;;6.35;95.73;97130.91;3223982;23;19924;-75
2022/04/25 03:07:00;;;;;;;;;;;;;;;6.34;95.92;97128.34;3223940;22;19927;-76
2022/04/25 03:08:17;;;;;;;;;;;;;;;6.32;95.84;97128.41;3223938;23;19935;-79
2022/04/25 03:09:32;;;;;;;;;;;;;;;6.32;95.88;97135.34;3221593;22;19923;-76
2022/04/25 03:10:48;;;;;;;;;;;;;;;6.34;95.61;97139.59;3223063;23;19927;-76
2022/04/25 03:12:04;;;;;;;;;;;;;;;6.35;95.39;97133.50;3222563;22;19962;-77
2022/04/25 03:13:20;;;;;;;;;;;;;;;6.40;95.65;97129.88;3222976;22;19923;-77
2022/04/25 03:14:35;;;;;;;;;;;;;;;6.44;95.53;97128.91;3223107;22;19959;-77
2022/04/25 03:15:51;;;;;;;;;;;;;;;6.38;95.79;97134.28;3222867;23;19927;-77
2022/04/25 03:17:06;;;;;;;;;;;;;;;6.45;95.76;97136.66;3223227;22;20026;-76
2022/04/25 03:18:22;;;;;;;;;;;;;;;6.45;95.56;97138.41;3223017;23;19923;-77
2022/04/25 03:19:37;;;;;;;;;;;;;;;6.42;95.56;97136.75;3222838;23;19923;-76
2022/04/25 03:20:53;;;;;;;;;;;;;;;6.45;95.83;97141.84;3223181;22;19923;-77
2022/04/25 03:22:09;;;;;;;;;;;;;;;6.43;95.83;97137.63;3223139;23;19927;-76
2022/04/25 03:23:25;;;;;;;;;;;;;;;6.42;95.86;97133.28;3223422;23;20003;-79
2022/04/25 03:24:40;;;;;;;;;;;;;;;6.42;95.79;97141.09;3223305;22;19923;-77
2022/04/25 03:25:56;;;;;;;;;;;;;;;6.43;95.92;97138.44;3223240;22;20268;-76
2022/04/25 03:27:11;;;;;;;;;;;;;;;6.42;96.17;97135.88;3223129;22;19924;-77
2022/04/25 03:28:27;;;;;;;;;;;;;;;6.34;96.41;97144.81;3222752;23;19923;-76
2022/04/25 03:29:42;;;;;;;;;;;;;;;6.32;96.30;97144.00;3222192;22;19924;-78
2022/04/25 03:30:58;;;;;;;;;;;;;;;6.34;96.32;97138.75;3222755;22;19930;-77
2022/04/25 03:32:13;;;;;;;;;;;;;;;6.34;96.75;97143.94;3222314;22;20680;-76
2022/04/25 03:33:31;;;;;;;;;;;;;;;6.27;96.89;97140.69;3222708;23;19949;-75
2022/04/25 03:34:46;;;;;;;;;;;;;;;6.33;96.80;97137.03;3222619;22;19977;-75
2022/04/25 03:36:02;;;;;;;;;;;;;;;6.32;97.11;97138.81;3222597;22;20543;-76
2022/04/25 03:37:18;;;;;;;;;;;;;;;6.30;97.20;97138.00;3227754;22;19919;-77
2022/04/25 03:38:33;;;;;;;;;;;;;;;6.36;96.96;97137.78;3222522;23;19973;-75
2022/04/25 03:39:49;;;;;;;;;;;;;;;6.30;97.22;97138.00;3222981;23;19947;-75
2022/04/25 03:41:04;;;;;;;;;;;;;;;6.26;97.28;97141.56;3222724;23;20347;-78
2022/04/25 03:42:19;;;;;;;;;;;;;;;6.28;97.49;97139.78;3223036;23;19923;-76
2022/04/25 03:43:35;;;;;;;;;;;;;;;6.26;97.49;97138.16;3223103;23;19928;-75
2022/04/25 03:44:50;;;;;;;;;;;;;;;6.28;97.88;97139.78;3222841;22;20382;-75
2022/04/25 03:46:06;;;;;;;;;;;;;;;6.26;97.90;97151.16;3222992;23;19924;-76
2022/04/25 03:47:21;;;;;;;;;;;;;;;6.26;98.38;97146.78;3223221;23;20233;-76
2022/04/25 03:48:40;;;;;;;;;;;;;;;6.23;98.22;97152.09;3223079;23;19923;-76
2022/04/25 03:49:56;;;;;;;;;;;;;;;6.22;98.35;97146.06;3222758;22;19923;-75
2022/04/25 03:51:12;;;;;;;;;;;;;;;6.20;98.83;97147.00;3222962;22;19923;-76
2022/04/25 03:52:28;;;;;;;;;;;;;;;6.16;98.95;97159.22;3222520;23;20354;-76
2022/04/25 03:53:43;;;;;;;;;;;;;;;6.18;98.97;97153.97;3222664;22;19930;-76
2022/04/25 03:58:08;;;;;;;;;;;;;;;6.24;99.32;97151.19;3222143;23;20026;-75
2022/04/25 03:59:23;;;;;;;;;;;;;;;6.25;99.38;97154.66;3222432;23;19919;-76
2022/04/25 04:00:38;;;;;;;;;;;;;;;6.27;99.58;97161.47;3223010;22;19999;-75
2022/04/25 04:01:54;;;;;;;;;;;;;;;6.22;99.46;97155.59;3223442;23;19954;-76
2022/04/25 04:03:11;;;;;;;;;;;;;;;6.25;99.46;97160.69;3223039;23;19923;-75
2022/04/25 04:04:26;;;;;;;;;;;;;;;6.21;99.70;97161.69;3223456;22;19927;-77
2022/04/25 04:05:42;;;;;;;;;;;;;;;6.24;99.52;97158.97;3223805;22;19923;-75
2022/04/25 04:06:58;;;;;;;;;;;;;;;6.27;99.47;97169.28;3224098;22;19924;-75
2022/04/25 04:08:13;;;;;;;;;;;;;;;6.28;99.50;97163.16;3223399;22;19927;-76
2022/04/25 04:09:47;;;;;;;;;;;;;;;6.31;99.51;97170.03;3223462;22;20315;-76
2022/04/25 04:11:06;;;;;;;;;;;;;;;6.27;99.67;97166.66;3228677;22;19928;-76
2022/04/25 04:12:23;;;;;;;;;;;;;;;6.27;99.38;97177.06;3223301;22;19930;-76
2022/04/25 04:13:39;;;;;;;;;;;;;;;6.30;99.62;97173.53;3223428;22;19924;-77
2022/04/25 04:14:54;;;;;;;;;;;;;;;6.30;99.69;97176.13;3223727;23;19924;-78
2022/04/25 04:16:10;;;;;;;;;;;;;;;6.27;99.54;97177.06;3223726;22;19931;-76
2022/04/25 04:17:26;;;;;;;;;;;;;;;6.26;100.00;97177.97;3223778;22;20002;-76
2022/04/25 04:18:41;;;;;;;;;;;;;;;6.24;100.00;97178.94;3223843;22;19923;-77
2022/04/25 04:19:57;;;;;;;;;;;;;;;6.26;100.00;97177.97;3223619;22;19970;-76
2022/04/25 04:21:13;;;;;;;;;;;;;;;6.28;100.00;97181.38;3223250;22;19920;-76
2022/04/25 04:22:29;;;;;;;;;;;;;;;6.34;100.00;97181.19;3223486;22;19920;-78
2022/04/25 04:23:45;;;;;;;;;;;;;;;6.36;100.00;97179.41;3223734;22;19977;-76
2022/04/25 04:25:01;;;;;;;;;;;;;;;6.32;100.00;97188.19;3223486;23;19931;-76
2022/04/25 04:26:16;;;;;;;;;;;;;;;6.31;100.00;97183.03;3223627;22;19928;-76
2022/04/25 04:27:32;;;;;;;;;;;;;;;6.28;100.00;97190.94;3223714;22;19923;-76
2022/04/25 04:28:47;;;;;;;;;;;;;;;6.34;100.00;97188.13;3223464;23;19930;-76
2022/04/25 04:30:07;;;;;;;;;;;;;;;6.35;100.00;97192.44;3223970;23;19946;-76
2022/04/25 04:31:22;;;;;;;;;;;;;;;6.35;100.00;97193.28;3223930;22;19930;-76
2022/04/25 04:32:40;;;;;;;;;;;;;;;6.35;100.00;97190.69;3223400;22;19923;-76
2022/04/25 04:33:55;;;;;;;;;;;;;;;6.31;100.00;97191.69;3223946;22;20006;-76
2022/04/25 04:35:12;;;;;;;;;;;;;;;6.30;100.00;97200.41;3223581;23;19926;-76
2022/04/25 04:36:29;;;;;;;;;;;;;;;6.31;100.00;97207.28;3223385;22;19947;-76
2022/04/25 04:37:44;;;;;;;;;;;;;;;6.31;100.00;97209.03;3223710;23;19927;-76
2022/04/25 04:38:59;;;;;;;;;;;;;;;6.30;100.00;97204.72;3223655;23;19928;-76
2022/04/25 04:40:30;;;;;;;;;;;;;;;6.32;100.00;97206.38;3223599;23;20568;-76
2022/04/25 04:41:45;;;;;;;;;;;;;;;6.32;100.00;97209.00;3228535;23;19968;-80
2022/04/25 04:43:01;;;;;;;;;;;;;;;6.34;100.00;97208.94;3223133;23;19927;-76
2022/04/25 04:44:17;;;;;;;;;;;;;;;6.32;100.00;97209.00;3223297;22;19930;-76
2022/04/25 04:45:33;;;;;;;;;;;;;;;6.35;100.00;97210.63;3223446;22;19998;-76
2022/04/25 04:46:48;;;;;;;;;;;;;;;6.35;100.00;97208.03;3223725;22;19943;-76
2022/04/25 04:48:04;;;;;;;;;;;;;;;6.36;100.00;97215.78;3223596;22;19951;-77
2022/04/25 04:49:19;;;;;;;;;;;;;;;6.36;100.00;97210.59;3223764;23;19924;-77
2022/04/25 04:50:35;;;;;;;;;;;;;;;6.35;100.00;97215.81;3224289;23;20397;-77
2022/04/25 04:51:50;;;;;;;;;;;;;;;6.43;100.00;97218.22;3223755;23;19924;-76
2022/04/25 04:53:07;;;;;;;;;;;;;;;6.39;100.00;97220.06;3223584;23;19927;-77
2022/04/25 04:54:22;;;;;;;;;;;;;;;6.38;100.00;97220.94;3222802;22;19928;-77
2022/04/25 04:55:38;;;;;;;;;;;;;;;6.38;100.00;97225.28;3223867;23;19926;-77
2022/04/25 04:56:53;;;;;;;;;;;;;;;6.43;100.00;97226.00;3223528;22;20337;-76
2022/04/25 04:58:08;;;;;;;;;;;;;;;6.46;100.00;97226.75;3223728;23;19931;-77
2022/04/25 04:59:24;;;;;;;;;;;;;;;6.48;100.00;97224.94;3223493;23;19930;-77
2022/04/25 05:00:44;;;;;;;;;;;;;;;6.50;100.00;97225.78;3223276;23;20326;-76
2022/04/25 05:02:00;;;;;;;;;;;;;;;6.45;100.00;97224.22;3222967;22;19954;-76
2022/04/25 05:03:15;;;;;;;;;;;;;;;6.38;100.00;97223.56;3223316;23;19931;-78
2022/04/25 05:04:31;;;;;;;;;;;;;;;6.39;100.00;97224.38;3222981;22;19923;-77
2022/04/25 05:05:46;;;;;;;;;;;;;;;6.48;100.00;97224.94;3223175;22;19949;-77
2022/04/25 05:07:02;;;;;;;;;;;;;;;6.47;100.00;97225.00;3223433;22;19998;-77
2022/04/25 05:08:17;;;;;;;;;;;;;;;6.47;100.00;97232.81;3223192;23;19931;-77
2022/04/25 05:09:33;;;;;;;;;;;;;;;6.42;100.00;97230.34;3223192;22;19923;-77
2022/04/25 05:10:48;;;;;;;;;;;;;;;6.40;100.00;97231.28;3223323;23;19931;-77
2022/04/25 05:12:04;;;;;;;;;;;;;;;6.39;100.00;97237.38;3222844;22;19927;-78
2022/04/25 05:13:20;;;;;;;;;;;;;;;6.44;100.00;97232.91;3223693;22;20556;-77
2022/04/25 05:14:36;;;;;;;;;;;;;;;6.44;100.00;97238.94;3222992;22;19920;-77
2022/04/25 05:15:51;;;;;;;;;;;;;;;6.44;100.00;97240.72;3222564;23;19924;-77
2022/04/25 05:17:06;;;;;;;;;;;;;;;6.42;100.00;97239.88;3222600;23;19946;-77
2022/04/25 05:18:22;;;;;;;;;;;;;;;6.40;100.00;97241.69;3223468;23;19978;-77
2022/04/25 05:19:37;;;;;;;;;;;;;;;6.39;100.00;97245.19;3223181;23;20539;-77
2022/04/25 05:20:53;;;;;;;;;;;;;;;6.39;100.00;97246.03;3223897;22;19994;-77
2022/04/25 05:22:08;;;;;;;;;;;;;;;6.41;100.00;97244.25;3223346;23;20748;-77
2022/04/25 05:23:24;;;;;;;;;;;;;;;6.46;100.00;97244.13;3222994;23;20370;-77
2022/04/25 05:24:39;;;;;;;;;;;;;;;6.44;100.00;97245.91;3223095;22;19923;-77
2022/04/25 05:25:55;;;;;;;;;;;;;;;6.47;100.00;97251.00;3223362;23;19923;-77
2022/04/25 05:27:11;;;;;;;;;;;;;;;6.45;100.00;97250.22;3222711;23;19950;-77
2022/04/25 05:28:26;;;;;;;;;;;;;;;6.44;100.00;97254.53;3222832;22;20003;-77
2022/04/25 05:29:42;;;;;;;;;;;;;;;6.52;100.00;97261.28;3222383;23;19923;-77
2022/04/25 05:30:57;;;;;;;;;;;;;;;6.47;100.00;97257.03;3222819;23;19930;-77
2022/04/25 05:32:12;;;;;;;;;;;;;;;6.49;100.00;97255.25;3222455;23;19985;-76
2022/04/25 05:33:28;;;;;;;;;;;;;;;6.46;100.00;97257.94;3222610;23;19946;-77
2022/04/25 05:34:43;;;;;;;;;;;;;;;6.50;100.00;97256.97;3223269;23;20004;-77
2022/04/25 05:35:59;;;;;;;;;;;;;;;6.49;100.00;97259.59;3222592;23;19923;-77
2022/04/25 05:37:14;;;;;;;;;;;;;;;6.52;100.00;97262.09;3223076;23;19930;-76
2022/04/25 05:38:30;;;;;;;;;;;;;;;6.50;100.00;97263.91;3223178;22;19931;-76
2022/04/25 05:39:45;;;;;;;;;;;;;;;6.54;100.00;97260.31;3222463;22;20030;-76
2022/04/25 05:41:01;;;;;;;;;;;;;;;6.53;100.00;97265.56;3222695;23;19920;-76
2022/04/25 05:42:16;;;;;;;;;;;;;;;6.55;100.00;97267.22;3222006;23;19927;-77
2022/04/25 05:43:32;;;;;;;;;;;;;;;6.54;100.00;97265.50;3223324;23;19990;-76
2022/04/25 05:44:47;;;;;;;;;;;;;;;6.50;100.00;97269.97;3222512;22;19924;-76
2022/04/25 05:46:03;;;;;;;;;;;;;;;6.55;100.00;97266.38;3223004;23;19924;-77
2022/04/25 05:47:18;;;;;;;;;;;;;;;6.57;100.00;97275.84;3223332;22;20683;-84
2022/04/25 05:52:02;;;;;;;;;;;;;;;6.54;100.00;97281.09;3228237;23;19923;-78
2022/04/25 05:53:18;;;;;;;;;;;;;;;6.56;100.00;97281.91;3228068;22;19923;-78
2022/04/25 05:54:34;;;;;;;;;;;;;;;6.70;100.00;97291.91;3223043;22;19952;-78
2022/04/25 05:55:50;;;;;;;;;;;;;;;6.70;100.00;97283.25;3223852;22;19930;-77
2022/04/25 05:57:06;;;;;;;;;;;;;;;6.72;100.00;97287.50;3223400;23;19924;-77
2022/04/25 05:58:21;;;;;;;;;;;;;;;6.72;100.00;97287.50;3224254;22;20003;-78
2022/04/25 05:59:37;;;;;;;;;;;;;;;6.72;100.00;97291.88;3223079;23;19943;-78
2022/04/25 06:00:52;;;;;;;;;;;;;;;6.74;100.00;97290.91;3223591;23;19926;-77
2022/04/25 06:02:07;;;;;;;;;;;;;;;6.77;100.00;97293.44;3223746;23;19927;-77
2022/04/25 06:03:23;;;;;;;;;;;;;;;6.75;100.00;97299.56;3223256;22;19920;-77
2022/04/25 06:04:38;;;;;;;;;;;;;;;6.76;100.00;97289.09;3224120;23;19919;-79
2022/04/25 06:05:54;;;;;;;;;;;;;;;6.72;100.00;97290.09;3224062;23;19920;-78
2022/04/25 06:07:09;;;;;;;;;;;;;;;6.79;100.00;97303.78;3223815;22;19920;-80
2022/04/25 06:08:25;;;;;;;;;;;;;;;6.80;100.00;97302.88;3223555;23;20495;-84
2022/04/25 06:09:40;;;;;;;;;;;;;;;6.79;100.00;97303.78;3223840;23;19970;-78
2022/04/25 06:10:56;;;;;;;;;;;;;;;6.83;100.00;97305.38;3223566;23;19928;-78
2022/04/25 06:12:11;;;;;;;;;;;;;;;6.89;100.00;97304.31;3223583;22;19999;-78
2022/04/25 06:13:27;;;;;;;;;;;;;;;6.85;100.00;97310.53;3223951;23;20351;-79
2022/04/25 06:14:44;;;;;;;;;;;;;;;6.88;100.00;97323.44;3224014;23;20074;-77
2022/04/25 06:15:59;;;;;;;;;;;;;;;6.85;99.83;97319.22;3223696;22;19998;-78
2022/04/25 06:17:15;;;;;;;;;;;;;;;6.85;100.00;97318.34;3224961;23;19919;-77
2022/04/25 06:18:30;;;;;;;;;;;;;;;6.87;99.83;97314.81;3224455;22;19947;-81
2022/04/25 06:19:46;;;;;;;;;;;;;;;6.92;99.63;97317.25;3224896;23;20011;-81
2022/04/25 06:21:01;;;;;;;;;;;;;;;6.87;99.36;97325.22;3224782;23;20376;-79
2022/04/25 06:22:17;;;;;;;;;;;;;;;6.94;99.24;97325.88;3224836;22;19920;-78
2022/04/25 06:23:33;;;;;;;;;;;;;;;7.01;97.67;97329.97;3224671;22;19923;-78
2022/04/25 06:24:49;;;;;;;;;;;;;;;6.98;98.75;97331.81;3224855;22;20294;-78
2022/04/25 06:26:04;;;;;;;;;;;;;;;6.91;98.46;97332.00;3224696;23;19930;-77
2022/04/25 06:27:20;;;;;;;;;;;;;;;7.00;97.61;97337.84;3224486;23;20363;-78
2022/04/25 06:28:36;;;;;;;;;;;;;;;7.09;96.99;97334.94;3224889;23;19947;-77
2022/04/25 06:29:52;;;;;;;;;;;;;;;7.08;97.42;97335.81;3224649;22;19927;-79
2022/04/25 06:31:07;;;;;;;;;;;;;;;7.05;97.93;97342.00;3224857;22;19931;-78
2022/04/25 06:32:23;;;;;;;;;;;;;;;7.07;97.51;97332.41;3224880;23;20006;-79
2022/04/25 06:33:39;;;;;;;;;;;;;;;7.10;96.36;97339.22;3224549;22;19923;-78
2022/04/25 06:34:54;;;;;;;;;;;;;;;7.12;96.96;97339.19;3224602;23;19920;-78
2022/04/25 06:36:10;;;;;;;;;;;;;;;7.17;95.41;97343.34;3224334;23;19920;-78
2022/04/25 06:37:25;;;;;;;;;;;;;;;7.23;94.77;97337.09;3229517;23;20271;-78
2022/04/25 06:38:41;;;;;;;;;;;;;;;7.17;96.37;97340.75;3224914;22;20285;-79
2022/04/25 06:39:56;;;;;;;;;;;;;;;7.12;95.97;97345.22;3224487;23;20010;-78
2022/04/25 06:41:12;;;;;;;;;;;;;;;7.12;96.07;97353.03;3224988;23;19923;-78
2022/04/25 06:42:27;;;;;;;;;;;;;;;7.11;95.34;97347.91;3224561;22;19924;-79
2022/04/25 06:43:43;;;;;;;;;;;;;;;7.25;94.68;97350.06;3224126;23;19924;-78
2022/04/25 06:44:58;;;;;;;;;;;;;;;7.23;95.23;97351.84;3224797;23;20023;-79
2022/04/25 06:46:14;;;;;;;;;;;;;;;7.25;96.04;97350.06;3225028;23;19923;-78
2022/04/25 06:47:29;;;;;;;;;;;;;;;7.27;95.85;97351.72;3224927;23;19924;-78
2022/04/25 06:49:19;;;;;;;;;;;;;;;7.27;96.66;97362.13;3224740;23;20725;-79
2022/04/25 06:50:20;;;;;;;;;;;;;;;7.26;94.05;97356.97;3225574;22;20412;-78